Time;durP1;ratioP1;P1;durP2;ratioP2;P2;SDS_P1;SDS_P2;PMS_P1;PMS_P2;Temp;Humidity;BMP_temperature;BMP_pressure;BME280_temperature;BME280_humidity;BME280_pressure;Samples;Min_cycle;Max_cycle;Signal;HPM_P1;HPM_P2
2023/01/20 00:00:31;;;;;;;14.10;6.40;;;2.00;99.90;;;;;;5113826;28;20055;-67
2023/01/20 00:02:59;;;;;;;12.23;6.50;;;2.00;99.90;;;;;;5114082;28;20046;-67
2023/01/20 00:05:26;;;;;;;13.43;7.32;;;2.00;99.90;;;;;;5109565;28;20758;-67
2023/01/20 00:07:54;;;;;;;10.70;6.50;;;2.00;99.90;;;;;;5111760;28;20430;-68
2023/01/20 00:10:21;;;;;;;15.18;7.63;;;2.00;99.90;;;;;;5112424;28;20130;-68
2023/01/20 00:12:48;;;;;;;15.75;6.78;;;1.90;99.90;;;;;;5107381;28;20491;-67
2023/01/20 00:15:16;;;;;;;14.75;7.25;;;1.90;99.90;;;;;;5111985;28;20525;-68
2023/01/20 00:17:43;;;;;;;12.70;6.68;;;1.90;99.90;;;;;;5112204;28;20533;-68
2023/01/20 00:20:13;;;;;;;16.50;7.65;;;1.90;99.90;;;;;;5112416;28;20052;-69
2023/01/20 00:22:41;;;;;;;12.48;6.93;;;1.80;99.90;;;;;;5108731;28;20039;-68
2023/01/20 00:25:10;;;;;;;16.00;7.45;;;1.80;99.90;;;;;;5111816;28;20457;-68
2023/01/20 00:27:37;;;;;;;14.60;7.55;;;1.80;99.90;;;;;;5104408;28;20090;-68
2023/01/20 00:30:06;;;;;;;17.50;7.40;;;1.80;99.90;;;;;;5104642;28;20142;-68
2023/01/20 00:32:38;;;;;;;16.85;8.02;;;1.80;99.90;;;;;;5109073;28;20407;-68
2023/01/20 00:35:07;;;;;;;15.90;8.05;;;1.80;99.90;;;;;;5110856;28;20048;-67
2023/01/20 00:37:35;;;;;;;16.33;8.55;;;1.80;99.90;;;;;;5111481;28;20502;-67
2023/01/20 00:40:04;;;;;;;13.65;7.40;;;1.80;99.90;;;;;;5110120;28;20043;-67
2023/01/20 00:42:31;;;;;;;15.43;7.90;;;1.80;99.90;;;;;;5113190;28;20035;-67
2023/01/20 00:44:59;;;;;;;11.07;7.45;;;1.80;99.90;;;;;;5112316;28;20056;-67
2023/01/20 00:47:26;;;;;;;20.13;7.72;;;1.80;99.90;;;;;;5111099;28;20040;-67
2023/01/20 00:49:53;;;;;;;13.90;7.50;;;1.80;99.90;;;;;;5099719;28;20063;-67
2023/01/20 00:52:21;;;;;;;13.90;7.65;;;1.80;99.90;;;;;;5106853;28;20048;-69
2023/01/20 00:54:50;;;;;;;15.23;7.97;;;1.80;99.90;;;;;;5100817;28;20130;-66
2023/01/20 00:57:17;;;;;;;13.05;7.32;;;1.90;99.90;;;;;;5113115;28;20040;-67
2023/01/20 00:59:44;;;;;;;12.85;7.75;;;1.90;99.90;;;;;;5099181;28;20117;-68
2023/01/20 01:02:11;;;;;;;11.90;7.75;;;1.90;99.90;;;;;;5105820;28;20032;-67
2023/01/20 01:04:39;;;;;;;16.20;7.57;;;1.90;99.90;;;;;;5112823;27;20057;-67
2023/01/20 01:07:06;;;;;;;13.63;8.30;;;1.90;99.90;;;;;;5110734;28;20050;-67
2023/01/20 01:09:33;;;;;;;12.60;7.38;;;1.90;99.90;;;;;;5092851;28;20471;-67
2023/01/20 01:12:02;;;;;;;12.23;8.25;;;2.00;99.90;;;;;;5107942;28;20134;-67
2023/01/20 01:14:31;;;;;;;13.95;8.70;;;1.90;99.90;;;;;;5112427;28;20468;-67
2023/01/20 01:16:58;;;;;;;18.55;8.45;;;1.90;99.90;;;;;;5110064;28;20043;-68
2023/01/20 01:19:26;;;;;;;17.00;9.65;;;1.90;99.90;;;;;;5109997;28;20411;-67
2023/01/20 01:21:53;;;;;;;14.77;8.98;;;1.90;99.90;;;;;;5110176;28;20050;-67
2023/01/20 01:24:21;;;;;;;20.45;9.57;;;1.90;99.90;;;;;;5111485;28;20082;-67
2023/01/20 01:26:48;;;;;;;13.18;8.27;;;1.90;99.90;;;;;;5108117;28;20036;-67
2023/01/20 01:29:17;;;;;;;18.15;9.57;;;1.80;99.90;;;;;;5111450;28;20055;-67
2023/01/20 01:31:44;;;;;;;18.92;10.18;;;1.80;99.90;;;;;;5095385;28;20044;-67
2023/01/20 01:34:11;;;;;;;20.65;9.73;;;1.80;99.90;;;;;;5105159;28;20051;-67
2023/01/20 01:36:38;;;;;;;17.90;9.05;;;1.80;99.90;;;;;;5111254;28;20059;-67
2023/01/20 01:39:06;;;;;;;16.38;9.88;;;1.80;99.90;;;;;;5110703;28;20044;-67
2023/01/20 01:41:33;;;;;;;21.77;10.20;;;1.80;99.90;;;;;;5106584;28;20056;-67
2023/01/20 01:44:05;;;;;;;21.83;10.15;;;1.80;99.90;;;;;;5109218;28;20055;-67
2023/01/20 01:46:34;;;;;;;21.08;10.05;;;1.80;99.90;;;;;;5111368;28;20151;-67
2023/01/20 01:49:04;;;;;;;16.88;10.93;;;1.80;99.90;;;;;;5109662;28;20608;-68
2023/01/20 01:51:36;;;;;;;17.58;9.57;;;1.80;99.90;;;;;;5108433;28;20067;-67
2023/01/20 01:54:11;;;;;;;18.02;11.32;;;1.80;99.90;;;;;;5109953;28;20555;-67
2023/01/20 01:56:41;;;;;;;17.48;10.13;;;1.80;99.90;;;;;;5110140;28;20461;-67
2023/01/20 01:59:11;;;;;;;20.40;10.20;;;1.80;99.90;;;;;;5103788;28;20496;-66
2023/01/20 02:01:45;;;;;;;25.70;11.85;;;1.80;99.90;;;;;;5109581;28;20055;-67
2023/01/20 02:04:16;;;;;;;18.35;10.98;;;1.80;99.90;;;;;;5109396;28;20451;-68
2023/01/20 02:06:48;;;;;;;22.73;10.40;;;1.70;99.90;;;;;;5110353;28;20048;-68
2023/01/20 02:09:15;;;;;;;23.50;10.98;;;1.70;99.90;;;;;;5091383;28;20603;-67
2023/01/20 02:11:47;;;;;;;18.92;10.00;;;1.80;99.90;;;;;;5101635;28;20043;-68
2023/01/20 02:14:16;;;;;;;21.63;10.55;;;1.80;99.90;;;;;;5105550;28;20043;-69
2023/01/20 02:16:58;;;;;;;17.83;10.20;;;1.90;99.90;;;;;;5108621;28;20074;-68
2023/01/20 02:20:01;;;;;;;18.83;10.63;;;1.90;99.90;;;;;;5109805;28;20572;-71
2023/01/20 02:22:41;;;;;;;18.13;10.70;;;1.90;99.90;;;;;;5110218;28;20423;-71
2023/01/20 02:25:44;;;;;;;21.42;10.70;;;2.00;99.90;;;;;;5108760;28;20152;-71
2023/01/20 02:28:41;;;;;;;19.48;10.60;;;2.00;99.90;;;;;;5110363;28;20447;-71
2023/01/20 02:32:05;;;;;;;15.93;9.45;;;2.00;99.90;;;;;;5090696;28;20079;-71
2023/01/20 02:34:41;;;;;;;19.75;10.80;;;2.00;99.90;;;;;;5064542;28;20101;-71
2023/01/20 02:37:14;;;;;;;18.17;10.23;;;2.00;99.90;;;;;;5098702;28;20056;-71
2023/01/20 02:39:50;;;;;;;19.02;10.13;;;2.00;99.90;;;;;;5110894;28;20134;-71
2023/01/20 02:42:24;;;;;;;24.08;10.38;;;2.00;99.90;;;;;;5106355;28;20101;-71
2023/01/20 02:44:57;;;;;;;16.60;8.80;;;2.00;99.90;;;;;;5105991;28;20440;-71
2023/01/20 02:47:30;;;;;;;;;;;2.00;99.90;;;;;;5107712;28;20054;-71
2023/01/20 02:50:05;;;;;;;19.25;9.77;;;2.10;99.90;;;;;;5110417;28;20308;-71
2023/01/20 02:52:38;;;;;;;16.42;9.25;;;2.00;99.90;;;;;;5109634;28;20043;-67
2023/01/20 02:55:09;;;;;;;25.60;10.65;;;2.00;99.90;;;;;;5108458;28;20053;-70
2023/01/20 02:57:43;;;;;;;22.38;10.60;;;1.90;99.90;;;;;;5107833;28;20230;-67
2023/01/20 03:00:19;;;;;;;19.38;10.35;;;1.90;99.90;;;;;;5109909;28;20483;-67
2023/01/20 03:02:51;;;;;;;17.77;10.00;;;1.90;99.90;;;;;;5109466;28;20058;-68
2023/01/20 03:05:23;;;;;;;16.30;10.17;;;1.90;99.90;;;;;;5104291;28;20058;-68
2023/01/20 03:07:53;;;;;;;21.55;10.35;;;1.90;99.90;;;;;;5098998;28;20051;-67
2023/01/20 03:10:22;;;;;;;15.32;9.88;;;1.90;99.90;;;;;;5106773;28;20036;-67
2023/01/20 03:12:54;;;;;;;17.35;9.60;;;1.90;99.90;;;;;;5106210;28;20043;-67
2023/01/20 03:15:29;;;;;;;19.88;9.57;;;1.90;99.90;;;;;;5108274;28;20404;-67
2023/01/20 03:17:58;;;;;;;17.20;8.20;;;1.90;99.90;;;;;;5109165;28;20078;-66
2023/01/20 03:20:25;;;;;;;13.68;7.68;;;1.90;99.90;;;;;;5108980;28;20047;-67
2023/01/20 03:22:53;;;;;;;15.02;7.57;;;1.90;99.90;;;;;;5109377;28;20048;-66
2023/01/20 03:25:20;;;;;;;15.50;8.85;;;1.90;99.90;;;;;;5106419;28;20411;-67
2023/01/20 03:27:48;;;;;;;12.30;7.45;;;2.00;99.90;;;;;;5105820;28;20067;-67
2023/01/20 03:30:18;;;;;;;18.33;8.15;;;2.00;99.90;;;;;;5109698;28;20050;-68
2023/01/20 03:32:49;;;;;;;12.30;7.25;;;2.10;99.90;;;;;;5110256;28;20345;-67
2023/01/20 03:35:19;;;;;;;10.98;6.28;;;2.10;99.90;;;;;;5109115;28;20086;-67
2023/01/20 03:37:46;;;;;;;12.82;6.60;;;2.10;99.90;;;;;;5109092;28;20052;-67
2023/01/20 03:40:16;;;;;;;9.65;6.72;;;2.10;99.90;;;;;;5098645;28;20048;-67
2023/01/20 03:42:53;;;;;;;15.82;7.05;;;2.20;99.90;;;;;;5109616;28;20096;-68
2023/01/20 03:45:27;;;;;;;12.80;6.82;;;2.20;99.90;;;;;;5111975;28;20051;-68
2023/01/20 03:48:04;;;;;;;15.57;7.45;;;2.20;99.90;;;;;;5112587;28;20040;-69
2023/01/20 03:50:42;;;;;;;14.52;7.60;;;2.20;99.90;;;;;;5104992;28;20488;-68
2023/01/20 03:53:22;;;;;;;11.43;6.95;;;2.20;99.90;;;;;;5113244;28;20087;-68
2023/01/20 03:55:55;;;;;;;14.20;7.03;;;2.30;99.90;;;;;;5111164;28;20249;-68
2023/01/20 03:58:28;;;;;;;12.27;7.00;;;2.30;99.90;;;;;;5112398;28;20124;-68
2023/01/20 04:00:57;;;;;;;;;;;2.30;99.90;;;;;;5106629;28;20548;-68
2023/01/20 04:03:30;;;;;;;12.73;6.90;;;2.30;99.90;;;;;;5101781;28;19923;-68
2023/01/20 04:06:03;;;;;;;12.30;7.03;;;2.30;99.90;;;;;;5105819;28;20088;-70
2023/01/20 04:08:34;;;;;;;9.90;5.85;;;2.40;99.90;;;;;;5103026;28;20040;-68
2023/01/20 04:11:06;;;;;;;10.30;6.50;;;2.40;99.90;;;;;;5108683;28;20051;-68
2023/01/20 04:13:36;;;;;;;13.27;6.72;;;2.40;99.90;;;;;;5110700;28;20079;-68
2023/01/20 04:16:12;;;;;;;13.30;6.15;;;2.40;99.90;;;;;;5111959;28;20044;-68
2023/01/20 04:18:42;;;;;;;14.98;6.75;;;2.50;99.90;;;;;;5111248;28;20134;-68
2023/01/20 04:21:17;;;;;;;11.02;6.78;;;2.50;99.90;;;;;;5108489;28;20048;-69
2023/01/20 04:23:50;;;;;;;13.02;7.05;;;2.50;99.90;;;;;;5105817;28;20515;-69
2023/01/20 04:26:20;;;;;;;14.48;7.45;;;2.50;99.90;;;;;;5111966;28;20511;-68
2023/01/20 04:28:47;;;;;;;9.70;6.28;;;2.50;99.90;;;;;;5105829;28;20075;-68
2023/01/20 04:31:14;;;;;;;15.80;6.95;;;2.50;99.90;;;;;;5093318;28;20055;-69
2023/01/20 04:33:42;;;;;;;9.60;6.00;;;2.50;99.90;;;;;;5108294;28;20055;-68
2023/01/20 04:36:10;;;;;;;12.82;7.03;;;2.50;99.90;;;;;;5113264;27;20519;-68
2023/01/20 04:38:38;;;;;;;10.77;6.40;;;2.50;99.90;;;;;;5098260;28;20445;-68
2023/01/20 04:41:05;;;;;;;12.85;6.45;;;2.50;99.90;;;;;;5096207;28;20047;-67
2023/01/20 04:43:33;;;;;;;12.38;6.30;;;2.50;99.90;;;;;;5107628;28;20070;-67
2023/01/20 04:46:00;;;;;;;13.95;7.15;;;2.50;99.90;;;;;;5105371;27;20062;-67
2023/01/20 04:48:28;;;;;;;14.02;7.43;;;2.50;99.90;;;;;;5123967;27;20055;-72
2023/01/20 04:50:55;;;;;;;10.05;7.13;;;2.50;99.90;;;;;;5119956;27;20075;-71
2023/01/20 04:53:24;;;;;;;14.32;7.03;;;2.50;99.90;;;;;;5112011;28;20067;-73
2023/01/20 04:55:52;;;;;;;15.63;7.65;;;2.50;99.90;;;;;;5109203;28;20044;-72
2023/01/20 04:58:19;;;;;;;12.77;7.25;;;2.50;99.90;;;;;;5103362;28;20077;-67
2023/01/20 05:00:47;;;;;;;19.25;9.55;;;2.50;99.90;;;;;;5100676;28;20055;-67
2023/01/20 05:03:14;;;;;;;20.77;11.73;;;2.50;99.90;;;;;;5109589;28;20134;-68
2023/01/20 05:05:42;;;;;;;24.98;12.05;;;2.50;99.90;;;;;;5108559;27;20052;-68
2023/01/20 05:08:09;;;;;;;26.70;11.40;;;2.50;99.90;;;;;;5118755;27;20051;-70
2023/01/20 05:10:38;;;;;;;22.75;10.85;;;2.40;99.90;;;;;;5108024;28;20048;-66
2023/01/20 05:13:05;;;;;;;25.48;11.77;;;2.40;99.90;;;;;;5107157;27;20044;-67
2023/01/20 05:15:32;;;;;;;20.95;10.00;;;2.40;99.90;;;;;;5104521;28;20052;-66
2023/01/20 05:18:00;;;;;;;18.52;10.48;;;2.40;99.90;;;;;;5099196;28;20574;-67
2023/01/20 05:20:27;;;;;;;20.80;11.32;;;2.40;99.90;;;;;;5097987;28;20481;-71
2023/01/20 05:22:55;;;;;;;19.55;10.93;;;2.40;99.90;;;;;;5094823;28;20105;-72
2023/01/20 05:25:22;;;;;;;21.48;10.57;;;2.40;99.90;;;;;;5092696;28;20044;-72
2023/01/20 05:27:51;;;;;;;18.15;9.55;;;2.40;99.90;;;;;;5110948;28;20048;-73
2023/01/20 05:30:18;;;;;;;19.13;9.75;;;2.40;99.90;;;;;;5107304;27;20036;-74
2023/01/20 05:32:49;;;;;;;14.75;8.70;;;2.40;99.90;;;;;;5109964;28;20135;-69
2023/01/20 05:35:17;;;;;;;15.65;7.97;;;2.50;99.90;;;;;;5103337;27;20059;-69
2023/01/20 05:37:44;;;;;;;13.98;8.23;;;2.50;99.90;;;;;;5105995;28;20518;-70
2023/01/20 05:40:15;;;;;;;14.93;8.38;;;2.50;99.90;;;;;;5102093;28;20063;-70
2023/01/20 05:42:42;;;;;;;17.38;9.18;;;2.50;99.90;;;;;;5099302;28;20047;-69
2023/01/20 05:45:11;;;;;;;15.70;8.70;;;2.50;99.90;;;;;;5108176;28;20071;-70
2023/01/20 05:47:39;;;;;;;17.13;8.75;;;2.50;99.90;;;;;;5111331;27;20051;-70
2023/01/20 05:50:07;;;;;;;16.40;9.57;;;2.50;99.90;;;;;;5113215;27;20510;-70
2023/01/20 05:52:35;;;;;;;20.10;10.73;;;2.50;99.90;;;;;;5093836;28;20080;-76
2023/01/20 05:55:03;;;;;;;18.40;10.32;;;2.50;99.90;;;;;;5102880;28;20043;-75
2023/01/20 05:57:31;;;;;;;21.05;10.25;;;2.50;99.90;;;;;;5103210;28;20048;-75
2023/01/20 05:59:59;;;;;;;17.75;10.18;;;2.50;99.90;;;;;;5104059;28;20035;-74
2023/01/20 06:02:30;;;;;;;19.23;9.65;;;2.50;99.90;;;;;;5112716;27;20055;-73
2023/01/20 06:05:00;;;;;;;22.00;11.40;;;2.50;99.90;;;;;;5104138;28;20055;-69
2023/01/20 06:07:28;;;;;;;21.48;11.52;;;2.50;99.90;;;;;;5092916;28;20055;-67
2023/01/20 06:09:57;;;;;;;15.32;9.90;;;2.50;99.90;;;;;;5093936;28;20059;-66
2023/01/20 06:12:25;;;;;;;20.60;11.43;;;2.50;99.90;;;;;;5106394;28;20409;-77
2023/01/20 06:14:52;;;;;;;18.80;11.38;;;2.50;99.90;;;;;;5109354;28;20083;-75
2023/01/20 06:17:20;;;;;;;23.40;10.85;;;2.50;99.90;;;;;;5110893;27;20043;-73
2023/01/20 06:19:48;;;;;;;23.00;11.98;;;2.50;99.90;;;;;;5101397;27;20108;-75
2023/01/20 06:22:17;;;;;;;20.27;11.07;;;2.50;99.90;;;;;;5104324;28;20486;-74
2023/01/20 06:24:45;;;;;;;23.77;11.75;;;2.50;99.90;;;;;;5108437;28;20059;-73
2023/01/20 06:27:12;;;;;;;18.35;11.07;;;2.50;99.90;;;;;;5109180;28;20063;-74
2023/01/20 06:29:40;;;;;;;18.83;10.57;;;2.50;99.90;;;;;;5104020;28;20047;-76
2023/01/20 06:32:08;;;;;;;18.42;9.63;;;2.50;99.90;;;;;;5103890;28;20105;-75
2023/01/20 06:34:35;;;;;;;24.02;10.45;;;2.50;99.90;;;;;;5097063;28;20048;-75
2023/01/20 06:37:04;;;;;;;22.13;10.00;;;2.50;99.90;;;;;;5100753;28;20055;-77
2023/01/20 06:39:32;;;;;;;17.48;9.65;;;2.50;99.90;;;;;;5099612;28;20051;-73
2023/01/20 06:42:00;;;;;;;21.67;11.45;;;2.50;99.90;;;;;;5111531;28;20047;-75
2023/01/20 06:44:28;;;;;;;21.90;10.13;;;2.50;99.90;;;;;;5100738;28;20047;-75
2023/01/20 06:46:57;;;;;;;18.15;10.07;;;2.50;99.90;;;;;;5097681;28;20184;-69
2023/01/20 06:49:24;;;;;;;19.10;10.82;;;2.40;99.90;;;;;;5104082;28;20047;-71
2023/01/20 06:51:52;;;;;;;24.05;10.68;;;2.40;99.90;;;;;;5098805;28;20088;-71
2023/01/20 06:54:21;;;;;;;19.35;10.45;;;2.40;99.90;;;;;;5101183;28;20048;-70
2023/01/20 06:56:48;;;;;;;20.83;11.68;;;2.50;99.90;;;;;;5099561;28;20471;-71
2023/01/20 06:59:15;;;;;;;19.00;10.65;;;2.50;99.90;;;;;;5105454;28;20044;-71
2023/01/20 07:01:43;;;;;;;21.60;10.98;;;2.50;99.90;;;;;;5102210;28;20139;-70
2023/01/20 07:04:15;;;;;;;19.10;10.40;;;2.50;99.90;;;;;;5106995;28;20062;-70
2023/01/20 07:06:42;;;;;;;22.60;11.38;;;2.50;99.90;;;;;;5100014;28;20098;-69
2023/01/20 07:09:12;;;;;;;15.52;9.68;;;2.50;99.90;;;;;;5100850;28;20044;-69
2023/01/20 07:11:41;;;;;;;20.58;10.65;;;2.60;99.90;;;;;;5106698;28;20067;-72
2023/01/20 07:14:08;;;;;;;21.70;11.02;;;2.60;99.90;;;;;;5110504;28;20074;-71
2023/01/20 07:16:36;;;;;;;14.73;10.18;;;2.60;99.90;;;;;;5107236;28;20134;-72
2023/01/20 07:19:03;;;;;;;20.85;11.45;;;2.60;99.90;;;;;;5112778;28;20491;-70
2023/01/20 07:21:31;;;;;;;20.30;10.88;;;2.60;99.90;;;;;;5114553;28;20055;-71
2023/01/20 07:24:01;;;;;;;15.80;10.35;;;2.60;99.90;;;;;;5111888;28;20047;-70
2023/01/20 07:26:29;;;;;;;18.33;10.13;;;2.60;99.90;;;;;;5114078;28;20052;-71
2023/01/20 07:28:59;;;;;;;21.92;10.05;;;2.60;99.90;;;;;;5114632;28;20062;-70
2023/01/20 07:31:30;;;;;;;17.27;9.52;;;2.60;99.90;;;;;;5113168;28;20396;-70
2023/01/20 07:33:58;;;;;;;19.13;10.35;;;2.60;99.90;;;;;;5111335;28;20071;-69
2023/01/20 07:36:26;;;;;;;24.67;10.50;;;2.60;99.90;;;;;;5092549;28;20040;-71
2023/01/20 07:38:54;;;;;;;22.77;9.57;;;2.70;99.90;;;;;;5091681;28;20142;-70
2023/01/20 07:41:22;;;;;;;18.85;9.80;;;2.70;99.90;;;;;;5091516;28;20599;-70
2023/01/20 07:43:52;;;;;;;17.92;8.80;;;2.70;99.90;;;;;;5104989;28;20116;-70
2023/01/20 07:46:21;;;;;;;26.52;10.20;;;2.70;99.90;;;;;;5110206;28;20044;-70
2023/01/20 07:48:51;;;;;;;21.10;9.98;;;2.70;99.90;;;;;;5111114;28;20142;-69
2023/01/20 07:51:18;;;;;;;17.05;9.35;;;2.70;99.90;;;;;;5113103;28;20040;-70
2023/01/20 07:53:49;;;;;;;22.23;9.13;;;2.80;99.90;;;;;;5113705;28;20052;-70
2023/01/20 07:56:19;;;;;;;14.40;9.18;;;2.80;99.90;;;;;;5112796;28;20052;-71
2023/01/20 07:58:49;;;;;;;17.38;9.85;;;2.80;99.90;;;;;;5114123;28;20059;-70
2023/01/20 08:01:21;;;;;;;17.15;9.82;;;2.80;99.90;;;;;;5110935;28;20404;-70
2023/01/20 08:03:50;;;;;;;18.42;9.00;;;2.80;99.90;;;;;;5113669;28;20043;-69
2023/01/20 08:06:20;;;;;;;15.68;9.48;;;2.90;99.90;;;;;;5113587;28;20059;-69
2023/01/20 08:08:48;;;;;;;19.85;9.18;;;2.90;99.90;;;;;;5114007;28;20048;-71
2023/01/20 08:11:18;;;;;;;18.67;9.43;;;2.90;99.90;;;;;;5112132;28;20077;-69
2023/01/20 08:13:45;;;;;;;14.55;8.55;;;2.90;99.90;;;;;;5112540;28;20044;-70
2023/01/20 08:16:16;;;;;;;14.32;9.32;;;2.90;99.90;;;;;;5114063;28;20134;-69
2023/01/20 08:18:45;;;;;;;14.40;8.90;;;2.90;99.90;;;;;;5111387;28;20054;-70
2023/01/20 08:21:20;;;;;;;17.38;9.00;;;2.90;99.90;;;;;;5113018;28;20032;-69
2023/01/20 08:23:48;;;;;;;16.58;9.35;;;2.90;99.90;;;;;;5112223;28;20050;-69
2023/01/20 08:26:16;;;;;;;15.77;8.07;;;2.90;99.90;;;;;;5112187;28;20039;-70
2023/01/20 08:28:43;;;;;;;15.75;8.55;;;2.90;99.90;;;;;;5110280;28;20558;-70
2023/01/20 08:31:13;;;;;;;20.92;8.50;;;2.90;99.90;;;;;;5112557;28;20050;-70
2023/01/20 08:33:42;;;;;;;15.70;8.18;;;3.00;99.90;;;;;;5113538;28;20105;-70
2023/01/20 08:36:17;;;;;;;14.43;8.60;;;3.00;99.90;;;;;;5113251;28;20063;-71
2023/01/20 08:38:56;;;;;;;14.35;8.27;;;3.00;99.90;;;;;;5102330;28;20462;-69
2023/01/20 08:41:34;;;;;;;12.73;7.97;;;3.00;99.90;;;;;;5097660;28;20051;-76
2023/01/20 08:44:05;;;;;;;17.70;8.48;;;3.00;99.90;;;;;;5105180;28;20052;-78
2023/01/20 08:46:33;;;;;;;20.02;7.72;;;3.00;99.90;;;;;;5105438;27;20043;-77
2023/01/20 08:49:00;;;;;;;14.82;8.30;;;3.00;99.90;;;;;;5107950;28;20537;-79
2023/01/20 08:51:32;;;;;;;13.45;7.60;;;3.10;99.90;;;;;;5104554;28;20047;-76
2023/01/20 08:54:00;;;;;;;18.60;8.45;;;3.10;99.90;;;;;;5107462;28;20047;-75
2023/01/20 08:56:28;;;;;;;14.32;6.75;;;3.10;99.90;;;;;;5091933;28;20117;-74
2023/01/20 08:58:56;;;;;;;10.70;6.03;;;3.10;99.90;;;;;;5103928;28;20052;-74
2023/01/20 09:01:26;;;;;;;12.88;7.03;;;3.20;99.90;;;;;;5097872;28;20126;-74
2023/01/20 09:03:55;;;;;;;12.02;6.72;;;3.10;99.90;;;;;;5104458;28;20071;-74
2023/01/20 09:06:23;;;;;;;13.38;6.78;;;3.20;99.90;;;;;;5110653;27;20047;-76
2023/01/20 09:08:54;;;;;;;13.45;7.05;;;3.20;99.90;;;;;;5094180;28;20138;-75
2023/01/20 09:11:25;;;;;;;13.20;6.60;;;3.10;99.90;;;;;;5099874;28;20415;-76
2023/01/20 09:13:53;;;;;;;11.98;6.97;;;3.10;99.90;;;;;;5098976;27;20151;-77
2023/01/20 09:16:20;;;;;;;12.75;6.65;;;3.10;99.90;;;;;;5108474;27;20044;-75
2023/01/20 09:18:48;;;;;;;12.25;6.70;;;3.10;99.90;;;;;;5099029;28;20055;-76
2023/01/20 09:21:15;;;;;;;12.73;7.15;;;3.20;99.90;;;;;;5110021;28;20089;-75
2023/01/20 09:23:46;;;;;;;11.52;6.70;;;3.20;99.90;;;;;;5098228;28;20047;-77
2023/01/20 09:26:16;;;;;;;11.32;6.40;;;3.30;99.90;;;;;;5112026;28;20047;-76
2023/01/20 09:28:46;;;;;;;8.85;5.97;;;3.30;99.90;;;;;;5094794;28;20504;-75
2023/01/20 09:31:13;;;;;;;11.73;5.63;;;3.40;99.90;;;;;;5091582;28;20082;-75
2023/01/20 09:33:42;;;;;;;7.50;5.55;;;3.40;99.90;;;;;;5096507;28;20036;-75
2023/01/20 09:36:10;;;;;;;10.50;5.95;;;3.40;99.90;;;;;;5111754;28;20051;-76
2023/01/20 09:44:35;;;;;;;9.15;5.68;;;3.50;99.90;;;;;;5109157;28;20051;-77
2023/01/20 09:47:21;;;;;;;8.43;5.30;;;3.60;99.90;;;;;;5097442;28;20554;-74
2023/01/20 09:53:07;;;;;;;10.15;5.82;;;3.60;99.90;;;;;;5102627;28;20043;-76
2023/01/20 09:55:47;;;;;;;7.60;5.07;;;3.70;99.90;;;;;;5107339;28;20534;-75
2023/01/20 09:58:27;;;;;;;9.35;6.22;;;3.70;99.90;;;;;;5107161;27;20052;-75
2023/01/20 10:01:06;;;;;;;13.95;4.90;;;3.60;99.90;;;;;;5100838;28;20134;-74
2023/01/20 10:03:41;;;;;;;7.95;5.45;;;3.60;99.90;;;;;;5100346;28;20048;-75
2023/01/20 10:06:14;;;;;;;7.90;4.55;;;3.70;99.90;;;;;;5089652;28;20126;-74
2023/01/20 10:08:54;;;;;;;8.05;5.35;;;3.70;99.90;;;;;;5091300;28;20189;-76
2023/01/20 10:11:24;;;;;;;9.23;4.40;;;3.70;99.90;;;;;;5108353;28;20424;-75
2023/01/20 10:14:03;;;;;;;7.20;3.75;;;3.70;99.90;;;;;;5104165;28;20054;-75
2023/01/20 10:16:44;;;;;;;7.85;4.22;;;3.70;99.90;;;;;;5096366;28;20043;-74
2023/01/20 10:19:20;;;;;;;6.82;4.90;;;3.70;99.90;;;;;;5100597;28;20051;-74
2023/01/20 10:21:56;;;;;;;8.07;4.88;;;3.70;99.90;;;;;;5103511;28;20056;-76
2023/01/20 10:24:32;;;;;;;5.05;4.47;;;3.70;99.90;;;;;;5108450;28;20056;-75
2023/01/20 10:27:02;;;;;;;6.00;4.82;;;3.60;99.90;;;;;;5104785;28;20063;-76
2023/01/20 10:29:36;;;;;;;6.13;4.65;;;3.60;99.90;;;;;;5098632;28;20518;-77
2023/01/20 10:32:13;;;;;;;8.70;4.57;;;3.60;99.90;;;;;;5099020;28;20063;-75
2023/01/20 10:34:46;;;;;;;7.25;4.40;;;3.60;99.90;;;;;;5081472;28;20412;-77
2023/01/20 10:37:15;;;;;;;9.35;4.75;;;3.60;99.90;;;;;;5090731;28;20052;-75
2023/01/20 10:39:51;;;;;;;6.13;4.18;;;3.50;99.90;;;;;;5106107;28;20398;-76
2023/01/20 10:42:20;;;;;;;6.05;3.67;;;3.40;99.90;;;;;;5116347;28;20142;-77
2023/01/20 10:44:51;;;;;;;6.28;3.70;;;3.40;99.90;;;;;;5100215;28;20043;-76
2023/01/20 10:47:32;;;;;;;8.73;4.13;;;3.40;99.90;;;;;;5110258;28;20056;-76
2023/01/20 10:50:45;;;;;;;7.10;4.47;;;3.40;99.90;;;;;;5101560;28;20090;-75
2023/01/20 10:53:29;;;;;;;;;;;3.40;99.90;;;;;;5092799;28;20097;-76
2023/01/20 10:56:10;;;;;;;12.20;3.90;;;3.30;99.90;;;;;;5102903;28;19923;-75
2023/01/20 10:58:43;;;;;;;5.93;3.65;;;3.30;99.90;;;;;;5103788;28;20321;-75
2023/01/20 11:01:20;;;;;;;6.55;3.45;;;3.30;99.90;;;;;;5102022;28;20055;-75
2023/01/20 11:03:49;;;;;;;8.27;4.90;;;3.30;99.90;;;;;;5113916;27;20120;-76
2023/01/20 11:06:20;;;;;;;5.07;3.80;;;3.40;99.90;;;;;;5107836;28;20089;-73
2023/01/20 11:08:48;;;;;;;7.38;3.38;;;3.40;99.90;;;;;;5112427;28;20079;-70
2023/01/20 11:11:19;;;;;;;4.95;3.60;;;3.40;99.90;;;;;;5113202;28;20046;-70
2023/01/20 11:13:46;;;;;;;7.30;4.18;;;3.50;99.90;;;;;;5114901;28;20055;-71
2023/01/20 11:16:21;;;;;;;5.40;3.63;;;3.50;99.90;;;;;;5112310;28;20512;-70
2023/01/20 11:18:59;;;;;;;5.85;3.38;;;3.50;99.90;;;;;;5114476;28;20090;-70
2023/01/20 11:21:30;;;;;;;7.53;4.05;;;3.50;99.90;;;;;;5114332;28;20047;-70
2023/01/20 11:23:58;;;;;;;10.70;3.72;;;3.40;99.90;;;;;;5112802;28;20048;-70
2023/01/20 11:26:29;;;;;;;3.78;2.97;;;3.40;99.90;;;;;;5112651;28;20071;-69
2023/01/20 11:28:59;;;;;;;4.72;3.17;;;3.40;99.90;;;;;;5114267;28;20582;-70
2023/01/20 11:31:48;;;;;;;5.63;3.88;;;3.40;99.90;;;;;;5114114;28;20048;-72
2023/01/20 11:34:23;;;;;;;9.32;3.80;;;3.40;99.90;;;;;;5111087;28;20044;-69
2023/01/20 11:36:55;;;;;;;7.13;3.47;;;3.40;99.90;;;;;;5100267;28;20464;-71
2023/01/20 11:39:29;;;;;;;3.42;2.58;;;3.30;99.90;;;;;;5092088;28;20052;-71
2023/01/20 11:42:16;;;;;;;5.38;2.72;;;3.30;99.90;;;;;;5093660;28;20055;-71
2023/01/20 11:44:44;;;;;;;6.55;2.70;;;3.30;99.90;;;;;;5110625;28;20401;-72
2023/01/20 11:47:28;;;;;;;4.93;2.67;;;3.30;99.90;;;;;;5113901;28;20050;-69
2023/01/20 11:50:25;;;;;;;5.38;2.75;;;3.30;99.90;;;;;;5112622;28;20139;-70
2023/01/20 11:52:53;;;;;;;5.53;2.60;;;3.30;99.90;;;;;;5111204;28;20052;-71
2023/01/20 11:55:23;;;;;;;2.90;2.45;;;3.20;99.90;;;;;;5094079;28;20043;-70
2023/01/20 11:57:54;;;;;;;5.38;2.97;;;3.20;99.90;;;;;;5097939;28;20043;-70
2023/01/20 12:00:37;;;;;;;3.95;3.13;;;3.20;99.90;;;;;;5111091;28;20097;-71
2023/01/20 12:03:52;;;;;;;4.53;2.78;;;3.10;99.90;;;;;;5111335;28;20455;-71
2023/01/20 12:06:25;;;;;;;4.82;2.75;;;3.10;99.90;;;;;;5091489;28;20120;-71
2023/01/20 12:08:59;;;;;;;7.15;3.80;;;3.10;99.90;;;;;;5101906;28;20078;-69
2023/01/20 12:11:31;;;;;;;3.83;3.22;;;3.10;99.90;;;;;;5109921;28;20048;-75
2023/01/20 12:14:23;;;;;;;4.65;3.60;;;3.10;99.90;;;;;;5113594;28;20047;-76
2023/01/20 12:17:34;;;;;;;8.25;3.90;;;3.10;99.90;;;;;;5093355;28;20044;-75
2023/01/20 12:20:10;;;;;;;5.05;3.67;;;3.20;99.90;;;;;;5116364;27;20052;-74
2023/01/20 12:22:48;;;;;;;8.82;3.67;;;3.20;99.90;;;;;;5124714;27;20083;-77
2023/01/20 12:25:21;;;;;;;6.95;3.47;;;3.20;99.90;;;;;;5112175;28;20116;-72
2023/01/20 12:27:53;;;;;;;6.45;3.83;;;3.20;99.90;;;;;;5113045;28;20079;-71
2023/01/20 12:31:00;;;;;;;8.88;4.47;;;3.20;99.90;;;;;;5109601;28;20081;-71
2023/01/20 12:33:32;;;;;;;5.97;3.72;;;3.20;99.90;;;;;;5084822;27;20406;-74
2023/01/20 12:36:35;;;;;;;6.32;4.03;;;3.10;99.90;;;;;;5108691;28;20499;-75
2023/01/20 12:39:34;;;;;;;5.63;4.00;;;3.10;99.90;;;;;;5107674;27;20067;-70
2023/01/20 12:42:58;;;;;;;6.40;4.07;;;3.10;99.90;;;;;;5103336;28;20158;-70
2023/01/20 12:45:49;;;;;;;5.43;3.45;;;3.10;99.90;;;;;;5102505;27;20052;-70
2023/01/20 12:48:32;;;;;;;39.28;23.08;;;3.00;99.90;;;;;;5101150;27;20400;-78
2023/01/20 12:51:14;;;;;;;9.07;5.53;;;3.00;99.90;;;;;;5094876;28;20571;-72
2023/01/20 12:54:28;;;;;;;8.43;5.78;;;3.00;99.90;;;;;;5101484;28;20095;-72
2023/01/20 12:57:05;;;;;;;4.97;3.88;;;3.00;99.90;;;;;;5106404;27;20051;-72
2023/01/20 12:59:44;;;;;;;5.47;4.10;;;3.00;99.90;;;;;;5103270;28;20056;-72
2023/01/20 13:02:50;;;;;;;4.75;2.85;;;2.90;99.90;;;;;;5101643;28;20052;-71
2023/01/20 13:05:56;;;;;;;3.55;2.95;;;2.90;99.90;;;;;;5106548;27;20058;-77
2023/01/20 13:08:37;;;;;;;4.82;2.33;;;2.90;99.90;;;;;;5108022;27;21014;-70
2023/01/20 13:11:22;;;;;;;9.63;3.25;;;2.90;99.90;;;;;;5103674;28;20055;-72
2023/01/20 13:14:08;;;;;;;3.45;2.67;;;2.90;99.90;;;;;;5097806;28;20052;-71
2023/01/20 13:16:44;;;;;;;4.72;2.42;;;2.90;99.90;;;;;;5097599;28;20043;-70
2023/01/20 13:19:18;;;;;;;2.80;2.20;;;2.90;99.90;;;;;;5095291;28;20098;-70
2023/01/20 13:21:45;;;;;;;2.67;2.45;;;2.80;99.90;;;;;;5094474;27;20105;-79
2023/01/20 13:24:28;;;;;;;2.60;2.30;;;2.90;99.90;;;;;;5116787;27;20543;-76